sensor_id;sensor_type;location;lat;lon;timestamp;temperature;humidity
17671;DHT22;8954;48.694;8.940;2022-11-06T00:00:21;2.10;99.90
17671;DHT22;8954;48.694;8.940;2022-11-06T00:02:47;2.00;99.90
17671;DHT22;8954;48.694;8.940;2022-11-06T00:05:13;2.00;99.90
17671;DHT22;8954;48.694;8.940;2022-11-06T00:07:57;2.00;99.90
17671;DHT22;8954;48.694;8.940;2022-11-06T00:10:23;2.00;99.90
17671;DHT22;8954;48.694;8.940;2022-11-06T00:12:49;2.00;99.90
17671;DHT22;8954;48.694;8.940;2022-11-06T00:15:15;2.00;99.90
17671;DHT22;8954;48.694;8.940;2022-11-06T00:17:40;2.00;99.90
17671;DHT22;8954;48.694;8.940;2022-11-06T00:20:07;2.00;99.90
17671;DHT22;8954;48.694;8.940;2022-11-06T00:22:33;2.00;99.90
17671;DHT22;8954;48.694;8.940;2022-11-06T00:24:59;2.00;99.90
17671;DHT22;8954;48.694;8.940;2022-11-06T00:27:25;2.00;99.90
17671;DHT22;8954;48.694;8.940;2022-11-06T00:29:51;1.90;99.90
17671;DHT22;8954;48.694;8.940;2022-11-06T00:32:17;1.90;99.90
17671;DHT22;8954;48.694;8.940;2022-11-06T00:34:42;1.80;99.90
17671;DHT22;8954;48.694;8.940;2022-11-06T00:37:08;1.80;99.90
17671;DHT22;8954;48.694;8.940;2022-11-06T00:39:34;1.80;99.90
17671;DHT22;8954;48.694;8.940;2022-11-06T00:41:59;1.80;99.90
17671;DHT22;8954;48.694;8.940;2022-11-06T00:44:25;1.80;99.90
17671;DHT22;8954;48.694;8.940;2022-11-06T00:46:50;1.70;99.90
17671;DHT22;8954;48.694;8.940;2022-11-06T00:49:16;1.70;99.90
17671;DHT22;8954;48.694;8.940;2022-11-06T00:51:41;1.70;99.90
17671;DHT22;8954;48.694;8.940;2022-11-06T00:54:10;1.70;99.90
17671;DHT22;8954;48.694;8.940;2022-11-06T00:56:35;1.60;99.90
17671;DHT22;8954;48.694;8.940;2022-11-06T00:59:04;1.60;99.90
17671;DHT22;8954;48.694;8.940;2022-11-06T01:01:40;1.50;99.90
17671;DHT22;8954;48.694;8.940;2022-11-06T01:04:11;1.50;99.90
17671;DHT22;8954;48.694;8.940;2022-11-06T01:06:39;1.70;99.90
17671;DHT22;8954;48.694;8.940;2022-11-06T01:09:06;1.70;99.90
17671;DHT22;8954;48.694;8.940;2022-11-06T01:11:34;1.60;99.90
17671;DHT22;8954;48.694;8.940;2022-11-06T01:14:01;1.50;99.90
17671;DHT22;8954;48.694;8.940;2022-11-06T01:16:28;1.50;99.90
17671;DHT22;8954;48.694;8.940;2022-11-06T01:18:55;1.40;99.90
17671;DHT22;8954;48.694;8.940;2022-11-06T01:21:29;1.30;99.90
17671;DHT22;8954;48.694;8.940;2022-11-06T01:23:58;1.30;99.90
17671;DHT22;8954;48.694;8.940;2022-11-06T01:26:25;1.20;99.90
17671;DHT22;8954;48.694;8.940;2022-11-06T01:28:51;1.20;99.90
17671;DHT22;8954;48.694;8.940;2022-11-06T01:31:20;1.10;99.90
17671;DHT22;8954;48.694;8.940;2022-11-06T01:33:46;1.10;99.90
17671;DHT22;8954;48.694;8.940;2022-11-06T01:36:14;1.10;99.90
17671;DHT22;8954;48.694;8.940;2022-11-06T01:38:44;1.00;99.90
17671;DHT22;8954;48.694;8.940;2022-11-06T01:41:24;1.00;99.90
17671;DHT22;8954;48.694;8.940;2022-11-06T01:44:03;1.00;99.90
17671;DHT22;8954;48.694;8.940;2022-11-06T01:46:33;0.90;99.90
17671;DHT22;8954;48.694;8.940;2022-11-06T01:49:10;0.90;99.90
17671;DHT22;8954;48.694;8.940;2022-11-06T01:51:41;0.90;99.90
17671;DHT22;8954;48.694;8.940;2022-11-06T01:54:08;0.90;99.90
17671;DHT22;8954;48.694;8.940;2022-11-06T01:56:35;1.00;99.90
17671;DHT22;8954;48.694;8.940;2022-11-06T01:59:02;1.00;99.90
17671;DHT22;8954;48.694;8.940;2022-11-06T02:01:29;1.00;99.90
17671;DHT22;8954;48.694;8.940;2022-11-06T02:06:55;0.90;99.90
17671;DHT22;8954;48.694;8.940;2022-11-06T02:09:21;1.00;99.90
17671;DHT22;8954;48.694;8.940;2022-11-06T02:23:35;0.90;99.90
17671;DHT22;8954;48.694;8.940;2022-11-06T02:28:54;0.80;99.90
17671;DHT22;8954;48.694;8.940;2022-11-06T02:31:25;0.80;99.90
17671;DHT22;8954;48.694;8.940;2022-11-06T02:33:54;0.70;99.90
17671;DHT22;8954;48.694;8.940;2022-11-06T02:36:26;0.70;99.90
17671;DHT22;8954;48.694;8.940;2022-11-06T02:38:57;0.70;99.90
17671;DHT22;8954;48.694;8.940;2022-11-06T02:41:33;0.70;99.90
17671;DHT22;8954;48.694;8.940;2022-11-06T02:44:00;0.70;99.90
17671;DHT22;8954;48.694;8.940;2022-11-06T02:46:39;0.70;99.90
17671;DHT22;8954;48.694;8.940;2022-11-06T02:49:15;0.70;99.90
17671;DHT22;8954;48.694;8.940;2022-11-06T02:51:46;0.70;99.90
17671;DHT22;8954;48.694;8.940;2022-11-06T02:54:13;0.70;99.90
17671;DHT22;8954;48.694;8.940;2022-11-06T02:56:43;0.60;99.90
17671;DHT22;8954;48.694;8.940;2022-11-06T02:59:26;0.60;99.90
17671;DHT22;8954;48.694;8.940;2022-11-06T03:01:57;0.60;99.90
17671;DHT22;8954;48.694;8.940;2022-11-06T03:04:29;0.80;99.90
17671;DHT22;8954;48.694;8.940;2022-11-06T03:07:10;1.00;99.90
17671;DHT22;8954;48.694;8.940;2022-11-06T03:09:38;0.90;99.90
17671;DHT22;8954;48.694;8.940;2022-11-06T03:12:18;0.90;99.90
17671;DHT22;8954;48.694;8.940;2022-11-06T03:14:53;0.80;99.90
17671;DHT22;8954;48.694;8.940;2022-11-06T03:20:11;0.70;99.90
17671;DHT22;8954;48.694;8.940;2022-11-06T03:23:02;0.70;99.90
17671;DHT22;8954;48.694;8.940;2022-11-06T03:25:49;0.70;99.90
17671;DHT22;8954;48.694;8.940;2022-11-06T03:28:58;0.70;99.90
17671;DHT22;8954;48.694;8.940;2022-11-06T03:31:30;0.60;99.90
17671;DHT22;8954;48.694;8.940;2022-11-06T03:34:07;0.60;99.90
17671;DHT22;8954;48.694;8.940;2022-11-06T03:37:00;0.60;99.90
17671;DHT22;8954;48.694;8.940;2022-11-06T03:39:34;0.60;99.90
17671;DHT22;8954;48.694;8.940;2022-11-06T03:42:05;0.60;99.90
17671;DHT22;8954;48.694;8.940;2022-11-06T03:44:37;0.60;99.90
17671;DHT22;8954;48.694;8.940;2022-11-06T03:47:17;0.70;99.90
17671;DHT22;8954;48.694;8.940;2022-11-06T03:49:50;0.80;99.90
17671;DHT22;8954;48.694;8.940;2022-11-06T03:52:32;0.80;99.90
17671;DHT22;8954;48.694;8.940;2022-11-06T03:55:04;0.80;99.90
17671;DHT22;8954;48.694;8.940;2022-11-06T03:58:03;0.80;99.90
17671;DHT22;8954;48.694;8.940;2022-11-06T04:00:33;0.80;99.90
17671;DHT22;8954;48.694;8.940;2022-11-06T04:03:04;0.90;99.90
17671;DHT22;8954;48.694;8.940;2022-11-06T04:05:36;0.90;99.90
17671;DHT22;8954;48.694;8.940;2022-11-06T04:08:03;1.00;99.90
17671;DHT22;8954;48.694;8.940;2022-11-06T04:10:57;1.00;99.90
17671;DHT22;8954;48.694;8.940;2022-11-06T04:13:43;1.00;99.90
17671;DHT22;8954;48.694;8.940;2022-11-06T04:16:30;1.00;99.90
17671;DHT22;8954;48.694;8.940;2022-11-06T04:18:57;1.00;99.90
17671;DHT22;8954;48.694;8.940;2022-11-06T04:24:15;0.90;99.90
17671;DHT22;8954;48.694;8.940;2022-11-06T04:30:11;0.80;99.90
17671;DHT22;8954;48.694;8.940;2022-11-06T04:40:53;0.60;99.90
17671;DHT22;8954;48.694;8.940;2022-11-06T04:46:09;0.50;99.90
17671;DHT22;8954;48.694;8.940;2022-11-06T04:48:37;0.50;99.90
17671;DHT22;8954;48.694;8.940;2022-11-06T04:51:07;0.50;99.90
17671;DHT22;8954;48.694;8.940;2022-11-06T04:53:34;0.40;99.90
17671;DHT22;8954;48.694;8.940;2022-11-06T04:56:08;0.40;99.90
17671;DHT22;8954;48.694;8.940;2022-11-06T04:58:34;0.40;99.90
17671;DHT22;8954;48.694;8.940;2022-11-06T05:00:59;0.40;99.90
17671;DHT22;8954;48.694;8.940;2022-11-06T05:03:25;0.30;99.90
17671;DHT22;8954;48.694;8.940;2022-11-06T05:05:51;0.30;99.90
17671;DHT22;8954;48.694;8.940;2022-11-06T05:08:18;0.30;99.90
17671;DHT22;8954;48.694;8.940;2022-11-06T05:10:44;0.30;99.90
17671;DHT22;8954;48.694;8.940;2022-11-06T05:13:11;0.20;99.90
17671;DHT22;8954;48.694;8.940;2022-11-06T05:15:37;0.20;99.90
17671;DHT22;8954;48.694;8.940;2022-11-06T05:18:03;0.20;99.90
17671;DHT22;8954;48.694;8.940;2022-11-06T05:20:29;0.20;99.90
17671;DHT22;8954;48.694;8.940;2022-11-06T05:22:55;0.20;99.90
17671;DHT22;8954;48.694;8.940;2022-11-06T05:25:32;0.10;99.90
17671;DHT22;8954;48.694;8.940;2022-11-06T05:27:59;0.00;99.90
17671;DHT22;8954;48.694;8.940;2022-11-06T05:30:25;0.00;99.90
17671;DHT22;8954;48.694;8.940;2022-11-06T05:32:51;-0.10;99.90
17671;DHT22;8954;48.694;8.940;2022-11-06T05:35:18;-0.10;99.90
17671;DHT22;8954;48.694;8.940;2022-11-06T05:37:44;-0.10;99.90
17671;DHT22;8954;48.694;8.940;2022-11-06T05:40:10;-0.20;99.90
17671;DHT22;8954;48.694;8.940;2022-11-06T05:42:37;-0.10;99.90
17671;DHT22;8954;48.694;8.940;2022-11-06T05:45:03;-0.10;99.90
17671;DHT22;8954;48.694;8.940;2022-11-06T05:47:29;-0.10;99.90
17671;DHT22;8954;48.694;8.940;2022-11-06T05:49:55;-0.10;99.90
17671;DHT22;8954;48.694;8.940;2022-11-06T05:52:20;-0.10;99.90
17671;DHT22;8954;48.694;8.940;2022-11-06T05:54:46;-0.20;99.90
17671;DHT22;8954;48.694;8.940;2022-11-06T05:57:11;-0.20;99.90
17671;DHT22;8954;48.694;8.940;2022-11-06T05:59:37;-0.20;99.90
17671;DHT22;8954;48.694;8.940;2022-11-06T06:02:03;-0.20;99.90
17671;DHT22;8954;48.694;8.940;2022-11-06T06:04:28;-0.20;99.90
17671;DHT22;8954;48.694;8.940;2022-11-06T06:06:54;-0.20;99.90
17671;DHT22;8954;48.694;8.940;2022-11-06T06:09:20;-0.20;99.90
17671;DHT22;8954;48.694;8.940;2022-11-06T06:11:48;-0.20;99.90
17671;DHT22;8954;48.694;8.940;2022-11-06T06:14:14;-0.20;99.90
17671;DHT22;8954;48.694;8.940;2022-11-06T06:16:40;-0.20;99.90
17671;DHT22;8954;48.694;8.940;2022-11-06T06:19:05;-0.20;99.90
17671;DHT22;8954;48.694;8.940;2022-11-06T06:21:31;0.00;99.90
17671;DHT22;8954;48.694;8.940;2022-11-06T06:23:56;0.00;99.90
17671;DHT22;8954;48.694;8.940;2022-11-06T06:26:22;-0.10;99.90
17671;DHT22;8954;48.694;8.940;2022-11-06T06:28:48;-0.10;99.90
17671;DHT22;8954;48.694;8.940;2022-11-06T06:31:13;-0.10;99.90
17671;DHT22;8954;48.694;8.940;2022-11-06T06:33:39;-0.10;99.90
17671;DHT22;8954;48.694;8.940;2022-11-06T06:36:05;-0.10;99.90
17671;DHT22;8954;48.694;8.940;2022-11-06T06:38:31;-0.10;99.90
17671;DHT22;8954;48.694;8.940;2022-11-06T06:41:05;0.00;99.90
17671;DHT22;8954;48.694;8.940;2022-11-06T06:43:31;0.10;99.90
17671;DHT22;8954;48.694;8.940;2022-11-06T06:46:01;0.20;99.90
17671;DHT22;8954;48.694;8.940;2022-11-06T06:48:27;0.20;99.90
17671;DHT22;8954;48.694;8.940;2022-11-06T06:50:58;0.20;99.90
17671;DHT22;8954;48.694;8.940;2022-11-06T06:53:24;0.30;99.90
17671;DHT22;8954;48.694;8.940;2022-11-06T06:55:49;0.40;99.90
17671;DHT22;8954;48.694;8.940;2022-11-06T06:58:15;0.40;99.90
17671;DHT22;8954;48.694;8.940;2022-11-06T07:00:40;0.50;99.90
17671;DHT22;8954;48.694;8.940;2022-11-06T07:03:06;0.60;99.90
17671;DHT22;8954;48.694;8.940;2022-11-06T07:05:32;0.60;99.90
17671;DHT22;8954;48.694;8.940;2022-11-06T07:07:58;0.70;99.90
17671;DHT22;8954;48.694;8.940;2022-11-06T07:10:23;0.90;99.90
17671;DHT22;8954;48.694;8.940;2022-11-06T07:12:49;0.90;99.90
17671;DHT22;8954;48.694;8.940;2022-11-06T07:15:15;1.10;99.90
17671;DHT22;8954;48.694;8.940;2022-11-06T07:17:40;1.20;99.90
17671;DHT22;8954;48.694;8.940;2022-11-06T07:20:07;1.30;99.90
17671;DHT22;8954;48.694;8.940;2022-11-06T07:22:33;1.30;99.90
17671;DHT22;8954;48.694;8.940;2022-11-06T07:24:59;1.40;99.90
17671;DHT22;8954;48.694;8.940;2022-11-06T07:27:25;1.50;99.90
17671;DHT22;8954;48.694;8.940;2022-11-06T07:29:51;1.60;99.90
17671;DHT22;8954;48.694;8.940;2022-11-06T07:32:17;1.70;99.90
17671;DHT22;8954;48.694;8.940;2022-11-06T07:34:43;1.80;99.90
17671;DHT22;8954;48.694;8.940;2022-11-06T07:37:08;1.80;99.90
17671;DHT22;8954;48.694;8.940;2022-11-06T07:39:34;1.90;99.90
17671;DHT22;8954;48.694;8.940;2022-11-06T07:42:00;1.90;99.90
17671;DHT22;8954;48.694;8.940;2022-11-06T07:44:25;1.90;99.90
17671;DHT22;8954;48.694;8.940;2022-11-06T07:46:51;2.00;99.90
17671;DHT22;8954;48.694;8.940;2022-11-06T07:49:17;2.20;99.90
17671;DHT22;8954;48.694;8.940;2022-11-06T07:51:43;2.30;99.90
17671;DHT22;8954;48.694;8.940;2022-11-06T07:54:11;2.30;99.90
17671;DHT22;8954;48.694;8.940;2022-11-06T07:56:37;2.40;99.90
17671;DHT22;8954;48.694;8.940;2022-11-06T07:59:03;2.50;99.90
17671;DHT22;8954;48.694;8.940;2022-11-06T08:01:29;2.60;99.90
17671;DHT22;8954;48.694;8.940;2022-11-06T08:03:55;2.60;99.90
17671;DHT22;8954;48.694;8.940;2022-11-06T08:06:21;2.70;99.90
17671;DHT22;8954;48.694;8.940;2022-11-06T08:08:47;2.70;99.90
17671;DHT22;8954;48.694;8.940;2022-11-06T08:11:13;2.70;99.90
17671;DHT22;8954;48.694;8.940;2022-11-06T08:13:39;2.70;99.90
17671;DHT22;8954;48.694;8.940;2022-11-06T08:16:10;2.70;99.90
17671;DHT22;8954;48.694;8.940;2022-11-06T08:18:36;2.70;99.90
17671;DHT22;8954;48.694;8.940;2022-11-06T08:21:04;2.80;99.90
17671;DHT22;8954;48.694;8.940;2022-11-06T08:23:30;3.00;99.90
17671;DHT22;8954;48.694;8.940;2022-11-06T08:25:57;3.10;99.90
17671;DHT22;8954;48.694;8.940;2022-11-06T08:28:24;3.20;99.90
17671;DHT22;8954;48.694;8.940;2022-11-06T08:30:50;3.30;99.90
17671;DHT22;8954;48.694;8.940;2022-11-06T08:33:20;3.40;99.90
17671;DHT22;8954;48.694;8.940;2022-11-06T08:35:46;3.60;99.90
17671;DHT22;8954;48.694;8.940;2022-11-06T08:38:11;3.80;99.90
17671;DHT22;8954;48.694;8.940;2022-11-06T08:40:38;4.10;99.90
17671;DHT22;8954;48.694;8.940;2022-11-06T08:43:07;5.00;99.90
17671;DHT22;8954;48.694;8.940;2022-11-06T08:45:40;7.00;99.90
17671;DHT22;8954;48.694;8.940;2022-11-06T08:48:08;9.90;99.90
17671;DHT22;8954;48.694;8.940;2022-11-06T08:53:02;15.20;99.90
17671;DHT22;8954;48.694;8.940;2022-11-06T08:55:33;17.20;95.20
17671;DHT22;8954;48.694;8.940;2022-11-06T08:57:59;18.40;90.80
17671;DHT22;8954;48.694;8.940;2022-11-06T09:02:59;20.20;78.90
17671;DHT22;8954;48.694;8.940;2022-11-06T09:05:26;20.80;75.90
17671;DHT22;8954;48.694;8.940;2022-11-06T09:07:52;21.10;75.00
17671;DHT22;8954;48.694;8.940;2022-11-06T09:10:18;21.20;75.20
17671;DHT22;8954;48.694;8.940;2022-11-06T09:12:44;21.20;73.70
17671;DHT22;8954;48.694;8.940;2022-11-06T09:15:10;21.00;73.00
17671;DHT22;8954;48.694;8.940;2022-11-06T09:17:48;20.40;74.60
17671;DHT22;8954;48.694;8.940;2022-11-06T09:20:16;20.30;73.90
17671;DHT22;8954;48.694;8.940;2022-11-06T09:22:44;19.70;75.40
17671;DHT22;8954;48.694;8.940;2022-11-06T09:25:10;19.70;76.00
17671;DHT22;8954;48.694;8.940;2022-11-06T09:27:48;19.40;77.60
17671;DHT22;8954;48.694;8.940;2022-11-06T09:30:16;19.80;77.10
17671;DHT22;8954;48.694;8.940;2022-11-06T09:32:49;20.90;75.00
17671;DHT22;8954;48.694;8.940;2022-11-06T09:35:16;21.70;73.30
17671;DHT22;8954;48.694;8.940;2022-11-06T09:37:42;21.90;74.10
17671;DHT22;8954;48.694;8.940;2022-11-06T09:42:52;23.20;71.50
17671;DHT22;8954;48.694;8.940;2022-11-06T09:45:23;24.10;68.40
17671;DHT22;8954;48.694;8.940;2022-11-06T09:47:58;24.80;66.30
17671;DHT22;8954;48.694;8.940;2022-11-06T09:50:30;25.00;65.20
17671;DHT22;8954;48.694;8.940;2022-11-06T09:53:05;25.10;63.20
17671;DHT22;8954;48.694;8.940;2022-11-06T09:55:38;25.40;62.90
17671;DHT22;8954;48.694;8.940;2022-11-06T09:58:12;25.70;62.10
17671;DHT22;8954;48.694;8.940;2022-11-06T10:00:40;25.40;61.80
17671;DHT22;8954;48.694;8.940;2022-11-06T10:03:31;25.20;63.70
17671;DHT22;8954;48.694;8.940;2022-11-06T10:06:00;25.10;62.30
17671;DHT22;8954;48.694;8.940;2022-11-06T10:08:27;23.90;65.50
17671;DHT22;8954;48.694;8.940;2022-11-06T10:13:25;23.60;66.80
17671;DHT22;8954;48.694;8.940;2022-11-06T10:16:01;24.30;65.20
17671;DHT22;8954;48.694;8.940;2022-11-06T10:18:51;24.60;63.40
17671;DHT22;8954;48.694;8.940;2022-11-06T10:23:59;24.70;63.00
17671;DHT22;8954;48.694;8.940;2022-11-06T10:26:37;24.00;62.10
17671;DHT22;8954;48.694;8.940;2022-11-06T10:29:44;23.60;65.00
17671;DHT22;8954;48.694;8.940;2022-11-06T10:35:03;22.10;65.50
17671;DHT22;8954;48.694;8.940;2022-11-06T10:37:46;21.40;67.70
17671;DHT22;8954;48.694;8.940;2022-11-06T10:40:18;20.80;69.50
17671;DHT22;8954;48.694;8.940;2022-11-06T10:42:55;20.90;69.00
17671;DHT22;8954;48.694;8.940;2022-11-06T10:45:26;20.40;70.60
17671;DHT22;8954;48.694;8.940;2022-11-06T10:48:01;19.20;72.90
17671;DHT22;8954;48.694;8.940;2022-11-06T10:50:52;18.80;75.70
17671;DHT22;8954;48.694;8.940;2022-11-06T10:58:30;17.70;79.20
17671;DHT22;8954;48.694;8.940;2022-11-06T11:01:10;17.50;80.00
17671;DHT22;8954;48.694;8.940;2022-11-06T11:03:42;17.60;80.20
17671;DHT22;8954;48.694;8.940;2022-11-06T11:06:09;17.60;81.10
17671;DHT22;8954;48.694;8.940;2022-11-06T11:08:42;18.00;81.30
17671;DHT22;8954;48.694;8.940;2022-11-06T11:13:50;19.10;79.40
17671;DHT22;8954;48.694;8.940;2022-11-06T11:16:37;20.20;76.60
17671;DHT22;8954;48.694;8.940;2022-11-06T11:19:37;20.90;73.30
17671;DHT22;8954;48.694;8.940;2022-11-06T11:24:59;20.50;74.30
17671;DHT22;8954;48.694;8.940;2022-11-06T11:27:31;21.60;72.50
17671;DHT22;8954;48.694;8.940;2022-11-06T11:29:59;22.30;69.40
17671;DHT22;8954;48.694;8.940;2022-11-06T11:32:28;22.20;69.20
17671;DHT22;8954;48.694;8.940;2022-11-06T11:34:56;22.50;69.30
17671;DHT22;8954;48.694;8.940;2022-11-06T11:37:27;23.00;68.70
17671;DHT22;8954;48.694;8.940;2022-11-06T11:39:55;23.30;66.90
17671;DHT22;8954;48.694;8.940;2022-11-06T11:42:26;23.80;65.60
17671;DHT22;8954;48.694;8.940;2022-11-06T11:47:35;23.20;66.60
17671;DHT22;8954;48.694;8.940;2022-11-06T11:50:25;23.60;67.30
17671;DHT22;8954;48.694;8.940;2022-11-06T11:52:58;23.90;65.30
17671;DHT22;8954;48.694;8.940;2022-11-06T11:55:26;24.40;63.60
17671;DHT22;8954;48.694;8.940;2022-11-06T11:57:55;24.50;64.00
17671;DHT22;8954;48.694;8.940;2022-11-06T12:00:22;24.90;63.30
17671;DHT22;8954;48.694;8.940;2022-11-06T12:05:30;25.70;60.10
17671;DHT22;8954;48.694;8.940;2022-11-06T12:07:58;25.10;60.50
17671;DHT22;8954;48.694;8.940;2022-11-06T12:13:05;25.20;60.10
17671;DHT22;8954;48.694;8.940;2022-11-06T12:15:51;25.10;60.90
17671;DHT22;8954;48.694;8.940;2022-11-06T12:18:33;24.60;61.70
17671;DHT22;8954;48.694;8.940;2022-11-06T12:26:43;21.50;67.00
17671;DHT22;8954;48.694;8.940;2022-11-06T12:34:43;18.50;75.70
17671;DHT22;8954;48.694;8.940;2022-11-06T12:37:23;18.10;75.50
17671;DHT22;8954;48.694;8.940;2022-11-06T12:39:56;17.30;78.20
17671;DHT22;8954;48.694;8.940;2022-11-06T12:42:27;17.10;78.70
17671;DHT22;8954;48.694;8.940;2022-11-06T12:44:54;17.10;78.50
17671;DHT22;8954;48.694;8.940;2022-11-06T12:47:40;16.90;81.00
17671;DHT22;8954;48.694;8.940;2022-11-06T12:55:33;17.60;82.40
17671;DHT22;8954;48.694;8.940;2022-11-06T13:00:52;17.10;83.10
17671;DHT22;8954;48.694;8.940;2022-11-06T13:03:44;17.10;83.80
17671;DHT22;8954;48.694;8.940;2022-11-06T13:09:12;16.00;86.00
17671;DHT22;8954;48.694;8.940;2022-11-06T13:11:54;15.70;88.00
17671;DHT22;8954;48.694;8.940;2022-11-06T13:14:45;15.40;89.20
17671;DHT22;8954;48.694;8.940;2022-11-06T13:17:37;15.00;90.40
17671;DHT22;8954;48.694;8.940;2022-11-06T13:20:23;14.70;90.90
17671;DHT22;8954;48.694;8.940;2022-11-06T13:28:45;13.90;93.20
17671;DHT22;8954;48.694;8.940;2022-11-06T13:31:15;13.70;93.60
17671;DHT22;8954;48.694;8.940;2022-11-06T13:33:45;13.50;94.20
17671;DHT22;8954;48.694;8.940;2022-11-06T13:36:13;13.20;95.20
17671;DHT22;8954;48.694;8.940;2022-11-06T13:38:52;13.00;95.90
17671;DHT22;8954;48.694;8.940;2022-11-06T13:41:30;12.80;96.70
17671;DHT22;8954;48.694;8.940;2022-11-06T13:44:03;12.80;97.20
17671;DHT22;8954;48.694;8.940;2022-11-06T13:46:35;12.60;97.80
17671;DHT22;8954;48.694;8.940;2022-11-06T13:52:01;12.60;98.90
17671;DHT22;8954;48.694;8.940;2022-11-06T13:57:34;12.50;99.90
17671;DHT22;8954;48.694;8.940;2022-11-06T14:07:48;11.80;99.90
17671;DHT22;8954;48.694;8.940;2022-11-06T14:10:34;11.60;99.90
17671;DHT22;8954;48.694;8.940;2022-11-06T14:13:02;11.40;99.90
17671;DHT22;8954;48.694;8.940;2022-11-06T14:15:38;11.50;99.90
17671;DHT22;8954;48.694;8.940;2022-11-06T14:18:13;11.40;99.90
17671;DHT22;8954;48.694;8.940;2022-11-06T14:20:45;11.30;99.90
17671;DHT22;8954;48.694;8.940;2022-11-06T14:28:34;10.90;99.90
17671;DHT22;8954;48.694;8.940;2022-11-06T14:31:01;10.80;99.90
17671;DHT22;8954;48.694;8.940;2022-11-06T14:36:29;10.60;99.90
17671;DHT22;8954;48.694;8.940;2022-11-06T14:38:56;10.50;99.90
17671;DHT22;8954;48.694;8.940;2022-11-06T14:44:05;10.30;99.90
17671;DHT22;8954;48.694;8.940;2022-11-06T14:46:32;10.30;99.90
17671;DHT22;8954;48.694;8.940;2022-11-06T14:49:38;10.30;99.90
17671;DHT22;8954;48.694;8.940;2022-11-06T14:52:10;10.20;99.90
17671;DHT22;8954;48.694;8.940;2022-11-06T14:54:38;10.20;99.90
17671;DHT22;8954;48.694;8.940;2022-11-06T14:57:13;10.10;99.90
17671;DHT22;8954;48.694;8.940;2022-11-06T14:59:40;10.10;99.90
17671;DHT22;8954;48.694;8.940;2022-11-06T15:02:18;10.00;99.90
17671;DHT22;8954;48.694;8.940;2022-11-06T15:04:57;10.00;99.90
17671;DHT22;8954;48.694;8.940;2022-11-06T15:15:45;9.70;99.90
17671;DHT22;8954;48.694;8.940;2022-11-06T15:18:19;9.60;99.90
17671;DHT22;8954;48.694;8.940;2022-11-06T15:20:55;9.50;99.90
17671;DHT22;8954;48.694;8.940;2022-11-06T15:23:32;9.30;99.90
17671;DHT22;8954;48.694;8.940;2022-11-06T15:26:05;9.30;99.90
17671;DHT22;8954;48.694;8.940;2022-11-06T15:29:03;9.20;99.90
17671;DHT22;8954;48.694;8.940;2022-11-06T15:31:31;9.10;99.90
17671;DHT22;8954;48.694;8.940;2022-11-06T15:34:00;9.00;99.90
17671;DHT22;8954;48.694;8.940;2022-11-06T15:36:28;9.00;99.90
17671;DHT22;8954;48.694;8.940;2022-11-06T15:38:57;8.90;99.90
17671;DHT22;8954;48.694;8.940;2022-11-06T15:41:24;8.90;99.90
17671;DHT22;8954;48.694;8.940;2022-11-06T15:43:53;8.80;99.90
17671;DHT22;8954;48.694;8.940;2022-11-06T15:46:20;8.70;99.90
17671;DHT22;8954;48.694;8.940;2022-11-06T15:48:47;8.70;99.90
17671;DHT22;8954;48.694;8.940;2022-11-06T15:51:26;8.60;99.90
17671;DHT22;8954;48.694;8.940;2022-11-06T15:53:52;8.60;99.90
17671;DHT22;8954;48.694;8.940;2022-11-06T15:56:21;8.50;99.90
17671;DHT22;8954;48.694;8.940;2022-11-06T15:59:08;8.40;99.90
17671;DHT22;8954;48.694;8.940;2022-11-06T16:01:34;8.50;99.90
17671;DHT22;8954;48.694;8.940;2022-11-06T16:04:04;8.50;99.90
17671;DHT22;8954;48.694;8.940;2022-11-06T16:06:31;8.50;99.90
17671;DHT22;8954;48.694;8.940;2022-11-06T16:08:58;8.60;99.90
17671;DHT22;8954;48.694;8.940;2022-11-06T16:11:24;8.50;99.90
17671;DHT22;8954;48.694;8.940;2022-11-06T16:13:50;8.50;99.90
17671;DHT22;8954;48.694;8.940;2022-11-06T16:16:46;8.60;99.90
17671;DHT22;8954;48.694;8.940;2022-11-06T16:19:26;8.50;99.90
17671;DHT22;8954;48.694;8.940;2022-11-06T16:21:57;8.50;99.90
17671;DHT22;8954;48.694;8.940;2022-11-06T16:24:24;8.50;99.90
17671;DHT22;8954;48.694;8.940;2022-11-06T16:26:51;8.50;99.90
17671;DHT22;8954;48.694;8.940;2022-11-06T16:29:28;8.40;99.90
17671;DHT22;8954;48.694;8.940;2022-11-06T16:32:02;8.50;99.90
17671;DHT22;8954;48.694;8.940;2022-11-06T16:37:44;8.40;99.90
17671;DHT22;8954;48.694;8.940;2022-11-06T16:39:55;8.40;99.90
17671;DHT22;8954;48.694;8.940;2022-11-06T16:45:33;8.40;99.90
17671;DHT22;8954;48.694;8.940;2022-11-06T16:47:34;8.40;99.90
17671;DHT22;8954;48.694;8.940;2022-11-06T16:50:00;8.40;99.90
17671;DHT22;8954;48.694;8.940;2022-11-06T16:52:35;8.30;99.90
17671;DHT22;8954;48.694;8.940;2022-11-06T16:57:56;8.30;99.90
17671;DHT22;8954;48.694;8.940;2022-11-06T17:00:26;8.30;99.90
17671;DHT22;8954;48.694;8.940;2022-11-06T17:03:00;8.30;99.90
17671;DHT22;8954;48.694;8.940;2022-11-06T17:05:32;8.30;99.90
17671;DHT22;8954;48.694;8.940;2022-11-06T17:08:25;8.30;99.90
17671;DHT22;8954;48.694;8.940;2022-11-06T17:10:56;8.30;99.90
17671;DHT22;8954;48.694;8.940;2022-11-06T17:13:32;8.30;99.90
17671;DHT22;8954;48.694;8.940;2022-11-06T17:16:03;8.30;99.90
17671;DHT22;8954;48.694;8.940;2022-11-06T17:21:16;8.40;99.90
17671;DHT22;8954;48.694;8.940;2022-11-06T17:23:43;8.50;99.90
17671;DHT22;8954;48.694;8.940;2022-11-06T17:26:15;8.50;99.90
17671;DHT22;8954;48.694;8.940;2022-11-06T17:28:42;8.60;99.90
17671;DHT22;8954;48.694;8.940;2022-11-06T17:31:12;8.60;99.90
17671;DHT22;8954;48.694;8.940;2022-11-06T17:33:39;8.80;99.90
17671;DHT22;8954;48.694;8.940;2022-11-06T17:36:06;8.80;99.90
17671;DHT22;8954;48.694;8.940;2022-11-06T17:38:33;8.70;99.90
17671;DHT22;8954;48.694;8.940;2022-11-06T17:40:59;8.70;99.90
17671;DHT22;8954;48.694;8.940;2022-11-06T17:43:25;8.70;99.90
17671;DHT22;8954;48.694;8.940;2022-11-06T17:45:51;8.70;99.90
17671;DHT22;8954;48.694;8.940;2022-11-06T17:48:18;8.70;99.90
17671;DHT22;8954;48.694;8.940;2022-11-06T17:50:44;8.70;99.90
17671;DHT22;8954;48.694;8.940;2022-11-06T17:53:36;8.60;99.90
17671;DHT22;8954;48.694;8.940;2022-11-06T17:56:04;8.70;99.90
17671;DHT22;8954;48.694;8.940;2022-11-06T17:58:30;8.70;99.90
17671;DHT22;8954;48.694;8.940;2022-11-06T18:01:06;8.70;99.90
17671;DHT22;8954;48.694;8.940;2022-11-06T18:03:32;8.70;99.90
17671;DHT22;8954;48.694;8.940;2022-11-06T18:05:59;8.60;99.90
17671;DHT22;8954;48.694;8.940;2022-11-06T18:08:24;8.60;99.90
17671;DHT22;8954;48.694;8.940;2022-11-06T18:10:54;8.70;99.90
17671;DHT22;8954;48.694;8.940;2022-11-06T18:13:21;8.60;99.90
17671;DHT22;8954;48.694;8.940;2022-11-06T18:15:47;8.60;99.90
17671;DHT22;8954;48.694;8.940;2022-11-06T18:18:12;8.60;99.90
17671;DHT22;8954;48.694;8.940;2022-11-06T18:20:43;8.50;99.90
17671;DHT22;8954;48.694;8.940;2022-11-06T18:23:10;8.50;99.90
17671;DHT22;8954;48.694;8.940;2022-11-06T18:25:35;8.50;99.90
17671;DHT22;8954;48.694;8.940;2022-11-06T18:28:01;8.50;99.90
17671;DHT22;8954;48.694;8.940;2022-11-06T18:30:26;8.50;99.90
17671;DHT22;8954;48.694;8.940;2022-11-06T18:32:52;8.50;99.90
17671;DHT22;8954;48.694;8.940;2022-11-06T18:35:18;8.60;99.90
17671;DHT22;8954;48.694;8.940;2022-11-06T18:37:44;8.60;99.90
17671;DHT22;8954;48.694;8.940;2022-11-06T18:40:10;8.60;99.90
17671;DHT22;8954;48.694;8.940;2022-11-06T18:42:37;8.60;99.90